Time;durP1;ratioP1;P1;durP2;ratioP2;P2;SDS_P1;SDS_P2;PMS_P1;PMS_P2;Temp;Humidity;BMP_temperature;BMP_pressure;BME280_temperature;BME280_humidity;BME280_pressure;Samples;Min_cycle;Max_cycle;Signal;HPM_P1;HPM_P2
2023/03/23 00:01:19;;;;;;;;;1.83;1.83;;;;;15.28;61.66;100552.75;2021491;28;2734645;-74
2023/03/23 00:02:35;;;;;;;;;2.83;2.00;;;;;15.27;62.13;100564.31;2022567;28;2744029;-74
2023/03/23 00:03:50;;;;;;;;;2.00;2.00;;;;;15.26;62.03;100564.41;2024272;28;2744530;-74
2023/03/23 00:05:07;;;;;;;;;1.17;1.17;;;;;15.25;62.08;100566.19;2029787;28;2721116;-74
2023/03/23 00:06:20;;;;;;;;;1.33;1.33;;;;;15.25;61.89;100560.03;2028219;28;2722177;-74
2023/03/23 00:07:34;;;;;;;;;1.17;1.00;;;;;15.24;61.99;100551.22;2028283;27;2725294;-74
2023/03/23 00:08:56;;;;;;;;;1.00;1.00;;;;;15.24;61.85;100551.22;2023177;28;2722196;-74
2023/03/23 00:10:09;;;;;;;;;2.00;2.00;;;;;15.23;61.79;100557.47;2022009;28;2733596;-74
2023/03/23 00:11:26;;;;;;;;;1.67;1.67;;;;;15.24;62.20;100567.13;2022630;28;2733627;-74
2023/03/23 00:12:41;;;;;;;;;1.00;1.00;;;;;15.22;61.89;100552.25;2022108;28;2738254;-74
2023/03/23 00:13:57;;;;;;;;;1.17;1.00;;;;;15.20;61.85;100562.94;2022688;28;2724236;-74
2023/03/23 00:15:33;;;;;;;;;1.00;0.83;;;;;15.18;61.87;100557.75;2046447;28;2726322;-74
2023/03/23 00:16:47;;;;;;;;;2.67;1.17;;;;;15.17;61.88;100553.38;2045011;28;2737766;-74
2023/03/23 00:18:04;;;;;;;;;1.17;1.17;;;;;15.17;61.82;100539.28;2014537;28;2722138;-74
2023/03/23 00:19:21;;;;;;;;;1.00;1.00;;;;;15.17;61.72;100544.56;2020185;28;2732558;-74
2023/03/23 00:20:40;;;;;;;;;1.00;1.00;;;;;15.15;61.76;100541.16;2022427;28;2725258;-74
2023/03/23 00:21:53;;;;;;;;;2.67;1.00;;;;;15.16;61.87;100545.53;2022680;28;2725298;-74
2023/03/23 00:23:07;;;;;;;;;2.00;0.83;;;;;15.17;62.08;100541.91;2044741;28;2725281;-74
2023/03/23 00:24:20;;;;;;;;;0.33;0.33;;;;;15.16;61.79;100542.88;2045452;28;2727368;-74
2023/03/23 00:25:33;;;;;;;;;1.00;1.00;;;;;15.15;61.74;100538.50;2022563;28;2728418;-74
2023/03/23 00:26:48;;;;;;;;;2.00;1.00;;;;;15.14;61.67;100540.31;2022585;28;2728906;-74
2023/03/23 00:28:02;;;;;;;;;2.50;1.17;;;;;15.14;61.85;100542.09;2022384;28;2725762;-74
2023/03/23 00:29:18;;;;;;;;;3.00;1.00;;;;;15.13;61.84;100529.81;2022998;28;2731516;-74
2023/03/23 00:30:33;;;;;;;;;1.33;1.33;;;;;15.13;61.66;100540.41;2022631;28;2726356;-74
2023/03/23 00:31:48;;;;;;;;;2.00;1.00;;;;;15.12;61.64;100539.53;2045236;28;2721122;-74
2023/03/23 00:33:01;;;;;;;;;2.00;1.00;;;;;15.13;61.71;100537.75;2022588;28;2725270;-74
2023/03/23 00:34:19;;;;;;;;;1.83;1.00;;;;;15.13;61.83;100532.47;2045880;28;2729452;-74
2023/03/23 00:35:32;;;;;;;;;1.17;1.17;;;;;15.13;61.79;100537.75;2046664;28;2725273;-74
2023/03/23 00:36:53;;;;;;;;;1.00;1.00;;;;;15.13;61.74;100540.41;2022487;28;2726333;-74
2023/03/23 00:38:06;;;;;;;;;1.50;0.67;;;;;15.12;61.51;100533.38;2022812;28;2727836;-75
2023/03/23 00:39:19;;;;;;;;;1.83;1.00;;;;;15.12;61.64;100539.53;2046509;28;2727352;-74
2023/03/23 00:40:35;;;;;;;;;3.17;2.00;;;;;15.13;61.41;100548.34;2022230;28;2734028;-74
2023/03/23 00:41:48;;;;;;;;;3.00;1.00;;;;;15.11;61.29;100539.63;2022137;28;2733599;-74
2023/03/23 00:43:03;;;;;;;;;2.00;2.00;;;;;15.11;61.54;100544.94;2022192;28;2729432;-74
2023/03/23 00:44:17;;;;;;;;;3.33;1.00;;;;;15.10;61.68;100548.50;2022456;28;2723187;-74
2023/03/23 00:45:31;;;;;;;;;1.67;1.67;;;;;15.09;61.77;100544.16;2031717;27;2729424;-74
2023/03/23 00:46:48;;;;;;;;;3.00;1.17;;;;;15.08;61.55;100540.66;2035642;27;2724235;-74
2023/03/23 00:48:02;;;;;;;;;1.33;1.33;;;;;15.09;61.55;100536.22;2029970;28;2738811;-74
2023/03/23 00:49:24;;;;;;;;;1.00;1.00;;;;;15.07;61.66;100542.44;2030863;28;2725289;-74
2023/03/23 00:50:39;;;;;;;;;3.17;1.83;;;;;15.06;61.54;100530.13;2051311;28;2733937;-74
2023/03/23 00:51:54;;;;;;;;;2.67;1.17;;;;;15.07;61.67;100536.28;2021969;28;2727365;-74
2023/03/23 00:53:07;;;;;;;;;1.00;1.00;;;;;15.06;61.66;100531.94;2046535;28;2725274;-74
2023/03/23 00:54:21;;;;;;;;;1.00;1.00;;;;;15.06;61.66;100521.38;2046860;28;2721109;-74
2023/03/23 00:55:35;;;;;;;;;1.00;1.00;;;;;15.04;61.78;100508.19;2023034;28;2725254;-74
2023/03/23 00:56:48;;;;;;;;;4.50;2.67;;;;;15.05;61.79;100509.06;2021148;28;2741940;-74
2023/03/23 00:58:01;;;;;;;;;1.33;1.33;;;;;15.03;61.69;100511.81;2015515;28;2726308;-74
2023/03/23 00:59:15;;;;;;;;;3.83;2.00;;;;;15.03;61.86;100511.81;2021130;28;2744059;-74
2023/03/23 01:00:29;;;;;;;;;4.00;1.00;;;;;15.03;61.94;100516.22;2022272;28;2735667;-74
2023/03/23 01:01:42;;;;;;;;;1.67;1.33;;;;;15.02;62.00;100523.31;2045101;28;2733609;-74
2023/03/23 01:02:56;;;;;;;;;2.17;1.00;;;;;15.02;61.91;100520.66;2022766;28;2725254;-74
2023/03/23 01:04:12;;;;;;;;;4.17;2.00;;;;;15.03;61.97;100521.53;2043584;28;2745070;-74
2023/03/23 01:05:31;;;;;;;;;3.83;1.83;;;;;15.01;62.07;100524.28;2022469;28;2739881;-74
2023/03/23 01:06:48;;;;;;;;;1.67;1.67;;;;;15.02;62.18;100525.97;2022967;28;2729429;-74
2023/03/23 01:08:01;;;;;;;;;3.67;3.00;;;;;15.01;62.14;100511.03;2021790;28;2734709;-74
2023/03/23 01:09:19;;;;;;;;;0.33;0.33;;;;;15.02;62.15;100523.31;2023124;28;2729464;-74
2023/03/23 01:10:33;;;;;;;;;3.00;2.67;;;;;15.03;62.18;100516.22;2045016;28;2746098;-74
2023/03/23 01:11:44;;;;;;;;;2.67;2.00;;;;;15.02;61.92;100523.31;1995706;28;2747518;-74
2023/03/23 01:12:55;;;;;;;;;10.67;10.67;;;;;15.01;61.99;100520.75;2016710;28;3509648;-74
2023/03/23 01:14:06;;;;;;;;;14.75;14.00;;;;;15.00;61.96;100527.84;2037455;28;1819110;-74
2023/03/23 01:15:18;;;;;;;;;50.50;38.50;;;;;14.99;62.22;100523.47;1992237;28;2871141;-74
2023/03/23 01:16:29;;;;;;;;;48.50;37.50;;;;;14.99;61.97;100526.13;1994373;28;2860700;-74
2023/03/23 01:17:43;;;;;;;;;46.40;37.80;;;;;15.00;62.25;100532.28;2004565;28;3575197;-74
2023/03/23 01:18:54;;;;;;;;;32.00;27.00;;;;;14.99;62.32;100534.06;2013847;28;2506493;-74
2023/03/23 01:20:06;;;;;;;;;19.67;17.67;;;;;14.99;62.10;100534.06;1991327;28;3553306;-74
2023/03/23 01:21:20;;;;;;;;;9.83;8.67;;;;;14.99;62.12;100546.47;2048038;28;1818048;-74
2023/03/23 01:22:32;;;;;;;;;22.00;17.33;;;;;14.98;62.40;100540.31;1993729;28;3564892;-74
2023/03/23 01:23:43;;;;;;;;;9.00;9.00;;;;;14.99;62.21;100547.28;2017806;28;2753397;-74
2023/03/23 01:24:55;;;;;;;;;6.00;6.00;;;;;14.99;62.29;100542.00;2044215;28;2739868;-74
2023/03/23 01:26:11;;;;;;;;;6.50;5.33;;;;;14.99;62.30;100539.34;2044356;28;2746138;-74
2023/03/23 01:27:24;;;;;;;;;3.33;3.33;;;;;14.99;62.16;100528.75;2021862;28;2744532;-74
2023/03/23 01:28:35;;;;;;;;;2.00;2.00;;;;;15.00;62.07;100511.97;1994966;28;2748171;-74
2023/03/23 01:29:49;;;;;;;;;5.50;3.00;;;;;15.00;62.24;100500.50;2044463;28;2753379;-74
2023/03/23 01:31:04;;;;;;;;;3.33;2.50;;;;;14.99;62.25;100515.53;2021322;28;2739391;-74
2023/03/23 01:32:17;;;;;;;;;3.00;2.83;;;;;14.99;62.40;100531.41;2021493;28;2754426;-74
2023/03/23 01:33:28;;;;;;;;;5.00;4.00;;;;;14.99;62.18;100531.41;1993453;28;2748166;-74
2023/03/23 01:34:39;;;;;;;;;4.00;4.00;;;;;15.00;62.45;100538.44;2011947;28;2750293;-74
2023/03/23 01:35:50;;;;;;;;;12.00;10.40;;;;;14.99;62.41;100547.28;2045208;28;1821147;-74
2023/03/23 01:37:01;;;;;;;;;5.00;5.00;;;;;15.00;62.08;100534.91;2017663;28;2746116;-74
2023/03/23 01:38:12;;;;;;;;;3.00;3.00;;;;;14.97;62.49;100522.72;2035323;28;2745078;-74
2023/03/23 01:39:23;;;;;;;;;5.33;4.00;;;;;14.96;62.23;100521.84;2039548;28;2752387;-74
2023/03/23 01:40:34;;;;;;;;;4.00;2.00;;;;;14.96;62.43;100516.56;2031887;28;2754424;-74
2023/03/23 01:41:45;;;;;;;;;2.00;2.00;;;;;14.96;62.25;100508.63;2042749;28;2737192;-74
2023/03/23 01:42:58;;;;;;;;;3.33;3.17;;;;;14.96;62.16;100500.69;2022833;28;2738264;-74
2023/03/23 01:44:17;;;;;;;;;3.83;3.00;;;;;14.96;62.17;100505.13;2020831;28;2741014;-74
2023/03/23 01:45:37;;;;;;;;;3.00;2.00;;;;;14.95;62.11;100499.00;1987415;28;2747133;-74
2023/03/23 01:46:50;;;;;;;;;2.00;1.33;;;;;14.96;62.52;100502.50;2044584;28;2725265;-74
2023/03/23 01:48:12;;;;;;;;;2.00;2.00;;;;;14.95;62.20;100504.28;2020782;28;2741996;-74
2023/03/23 01:49:31;;;;;;;;;1.00;1.00;;;;;14.96;62.29;100491.91;2022611;28;2731508;-74
2023/03/23 01:51:12;;;;;;;;;3.00;3.00;;;;;14.96;62.37;100489.25;1996015;28;2750286;-74
2023/03/23 01:52:29;;;;;;;;;3.17;2.33;;;;;14.96;62.30;100487.44;2045127;28;2734671;-74
2023/03/23 01:54:04;;;;;;;;;2.00;2.00;;;;;14.96;62.38;100481.31;2044840;28;2741955;-74
2023/03/23 01:55:19;;;;;;;;;1.33;1.33;;;;;14.96;62.33;100476.03;2020131;28;2735683;-74
2023/03/23 01:56:40;;;;;;;;;2.17;2.17;;;;;14.95;62.05;100480.47;2044601;28;2746182;-74
2023/03/23 01:57:56;;;;;;;;;1.50;1.00;;;;;14.94;62.33;100481.38;2022261;28;2725336;-74
2023/03/23 01:59:10;;;;;;;;;1.00;1.00;;;;;14.94;61.97;100480.53;2044398;28;2729798;-74
2023/03/23 02:00:25;;;;;;;;;1.00;1.00;;;;;14.92;62.26;100474.47;2024884;28;2726330;-74
2023/03/23 02:01:44;;;;;;;;;1.67;1.00;;;;;14.93;62.07;100476.19;2043829;28;2731524;-74
2023/03/23 02:02:57;;;;;;;;;1.33;1.33;;;;;14.94;62.40;100476.09;2044747;28;2731507;-74
2023/03/23 02:04:14;;;;;;;;;3.67;1.83;;;;;14.94;62.13;100476.09;2020354;28;2741939;-74
2023/03/23 02:05:35;;;;;;;;;2.00;2.00;;;;;14.95;62.31;100469.00;2019980;28;2746181;-74
2023/03/23 02:06:50;;;;;;;;;1.17;1.00;;;;;14.95;62.27;100463.72;2015962;28;2728387;-74
2023/03/23 02:08:05;;;;;;;;;4.67;2.67;;;;;14.96;62.17;100468.91;2023256;28;2749258;-74
2023/03/23 02:09:19;;;;;;;;;1.00;1.00;;;;;14.97;62.35;100469.78;2053356;27;2726343;-74
2023/03/23 02:10:33;;;;;;;;;1.00;1.00;;;;;14.96;62.34;100468.09;2028380;27;2725348;-74
2023/03/23 02:11:47;;;;;;;;;1.00;1.00;;;;;14.95;62.44;100475.16;2046336;28;2729421;-74
2023/03/23 02:13:04;;;;;;;;;2.00;2.00;;;;;14.94;62.31;100477.88;2044834;28;2741932;-74
2023/03/23 02:14:18;;;;;;;;;1.50;1.50;;;;;14.94;62.65;100480.53;2022259;28;2725259;-74
2023/03/23 02:15:45;;;;;;;;;1.00;1.00;;;;;14.91;62.51;100464.84;2021596;28;2729587;-74
2023/03/23 02:17:16;;;;;;;;;2.00;1.00;;;;;14.90;62.64;100460.47;2046282;28;2720046;-74
2023/03/23 02:18:41;;;;;;;;;1.00;1.00;;;;;14.90;62.63;100473.72;2037681;27;2728394;-74
2023/03/23 02:19:57;;;;;;;;;1.33;1.33;;;;;14.90;62.51;100479.88;2031282;27;2726304;-74
2023/03/23 02:21:21;;;;;;;;;0.50;0.50;;;;;14.91;62.73;100484.22;2024913;28;2727330;-74
2023/03/23 02:23:20;;;;;;;;;3.33;2.83;;;;;14.91;62.46;100491.31;2052960;28;2731526;-74
2023/03/23 02:25:02;;;;;;;;;1.00;1.00;;;;;14.91;62.71;100496.59;2018844;28;2714965;-74
2023/03/23 02:26:38;;;;;;;;;1.00;1.00;;;;;14.89;62.54;100495.84;2041747;28;2724249;-74
2023/03/23 02:28:01;;;;;;;;;2.00;1.33;;;;;14.89;62.72;100495.84;2021150;28;2738232;-74
2023/03/23 02:29:45;;;;;;;;;3.00;1.83;;;;;14.90;62.78;100501.03;2046668;28;2719063;-74
2023/03/23 02:31:28;;;;;;;;;1.17;1.17;;;;;14.89;62.63;100494.00;2022053;28;2733587;-74
2023/03/23 02:32:53;;;;;;;;;2.00;1.00;;;;;14.91;62.60;100501.88;2045738;28;2731500;-74
2023/03/23 02:34:20;;;;;;;;;1.00;1.00;;;;;14.91;62.65;100507.19;2021567;28;2729424;-74
2023/03/23 02:35:39;;;;;;;;;1.67;0.33;;;;;14.90;62.56;100506.31;2016857;28;2729515;-74
2023/03/23 02:37:07;;;;;;;;;1.00;1.00;;;;;14.92;62.45;100507.09;2007800;28;2731568;-74
2023/03/23 02:38:29;;;;;;;;;1.00;1.00;;;;;14.92;62.49;100507.09;2044751;28;2727332;-74
2023/03/23 02:39:53;;;;;;;;;1.50;1.50;;;;;14.92;62.50;100501.78;2021966;28;2717974;-74
2023/03/23 02:41:08;;;;;;;;;1.17;0.67;;;;;14.92;62.41;100514.16;2040053;28;2724220;-74
2023/03/23 02:42:28;;;;;;;;;2.00;1.00;;;;;14.91;62.21;100507.19;2044953;28;2728378;-74
2023/03/23 02:43:46;;;;;;;;;1.00;1.00;;;;;14.89;62.64;100504.59;2022855;28;2725257;-74
2023/03/23 02:45:03;;;;;;;;;2.83;1.00;;;;;14.89;62.34;100501.97;2021820;28;2731524;-74
2023/03/23 02:46:18;;;;;;;;;1.00;1.00;;;;;14.87;62.44;100501.19;2044643;28;2731515;-74
2023/03/23 02:47:34;;;;;;;;;3.00;2.00;;;;;14.88;62.11;100507.34;2021130;28;2748669;-74
2023/03/23 02:48:51;;;;;;;;;1.00;1.00;;;;;14.88;62.44;100510.00;2022039;28;2729437;-74
2023/03/23 02:50:07;;;;;;;;;0.00;0.00;;;;;14.87;62.66;100502.97;2023674;28;2691949;-74
2023/03/23 02:51:23;;;;;;;;;1.17;1.17;;;;;14.89;62.69;100509.06;2051704;28;2723174;-74
2023/03/23 02:52:40;;;;;;;;;0.83;0.67;;;;;14.89;62.41;100527.59;2026456;28;2724256;-74
2023/03/23 02:53:55;;;;;;;;;2.17;1.17;;;;;14.88;62.61;100510.00;2045316;28;2722143;-74
2023/03/23 02:55:11;;;;;;;;;1.50;1.33;;;;;14.88;62.66;100504.69;2019021;28;2739845;-74
2023/03/23 02:56:27;;;;;;;;;2.83;1.83;;;;;14.88;62.58;100504.69;2016682;28;2736743;-74
2023/03/23 02:57:41;;;;;;;;;2.17;2.00;;;;;14.89;62.55;100501.97;2021072;28;2742962;-74
2023/03/23 02:58:55;;;;;;;;;1.33;1.00;;;;;14.88;62.47;100505.56;2022541;28;2725274;-74
2023/03/23 03:00:14;;;;;;;;;1.83;1.17;;;;;14.88;62.44;100491.47;2022709;28;2727334;-74
2023/03/23 03:01:35;;;;;;;;;1.00;1.00;;;;;14.89;62.47;100493.19;2022557;28;2731500;-74
2023/03/23 03:02:52;;;;;;;;;1.00;1.00;;;;;14.91;62.40;100501.88;2021234;28;2731874;-74
2023/03/23 03:04:15;;;;;;;;;2.00;1.17;;;;;14.90;62.44;100493.09;2038846;28;2728932;-74
2023/03/23 03:05:52;;;;;;;;;3.00;1.50;;;;;14.91;62.51;100505.41;2020506;28;2741924;-74
2023/03/23 03:07:21;;;;;;;;;2.00;2.00;;;;;14.91;62.60;100502.75;2013696;28;2732585;-74
2023/03/23 03:08:47;;;;;;;;;1.17;1.17;;;;;14.91;62.35;100496.59;2014632;28;2725279;-74
2023/03/23 03:10:08;;;;;;;;;1.00;1.00;;;;;14.91;62.26;100491.31;2045289;28;2724204;-74
2023/03/23 03:11:27;;;;;;;;;1.67;1.00;;;;;14.91;62.56;100483.38;2045703;28;2729421;-74
2023/03/23 03:12:56;;;;;;;;;2.17;1.67;;;;;14.91;62.33;100492.16;2045792;28;2737761;-74
2023/03/23 03:14:17;;;;;;;;;1.50;1.00;;;;;14.91;62.35;100488.66;2024189;28;2723183;-74
2023/03/23 03:15:33;;;;;;;;;1.00;1.00;;;;;14.91;62.42;100483.38;2047013;28;2725253;-74
2023/03/23 03:17:23;;;;;;;;;2.00;1.67;;;;;14.92;62.39;100477.13;2022463;28;2732584;-74
2023/03/23 03:18:41;;;;;;;;;2.00;1.33;;;;;14.92;62.79;100480.63;2028588;28;2734181;-74
2023/03/23 03:20:09;;;;;;;;;1.67;1.67;;;;;14.93;62.65;100473.53;2022785;28;2739859;-74
2023/03/23 03:21:27;;;;;;;;;1.33;1.00;;;;;14.93;62.34;100473.53;2028338;28;2726900;-74
2023/03/23 03:22:45;;;;;;;;;1.00;1.00;;;;;14.91;62.46;100470.13;2023109;28;2729432;-74
2023/03/23 03:24:01;;;;;;;;;2.17;1.67;;;;;14.90;62.57;100465.78;2023111;28;2731504;-74
2023/03/23 03:25:16;;;;;;;;;3.83;1.00;;;;;14.89;62.61;100477.31;2022113;28;2727350;-74
2023/03/23 03:26:34;;;;;;;;;1.50;1.50;;;;;14.85;62.38;100477.47;2046471;28;2729432;-74
2023/03/23 03:27:52;;;;;;;;;1.67;1.33;;;;;14.85;62.57;100477.47;2023347;28;2735116;-74
2023/03/23 03:29:06;;;;;;;;;2.00;1.00;;;;;14.87;62.81;100479.16;2024121;28;2729437;-74
2023/03/23 03:30:26;;;;;;;;;1.17;1.17;;;;;14.88;62.65;100486.19;2023651;28;2724215;-74
2023/03/23 03:31:45;;;;;;;;;1.67;1.67;;;;;14.88;62.77;100487.03;2022633;28;2746087;-74
2023/03/23 03:33:02;;;;;;;;;2.00;1.50;;;;;14.88;62.63;100488.81;2022473;28;2735684;-74
2023/03/23 03:34:17;;;;;;;;;2.17;2.17;;;;;14.88;62.66;100480.88;2021852;28;2744023;-74
2023/03/23 03:35:31;;;;;;;;;1.50;1.50;;;;;14.88;62.46;100486.19;2023210;28;2729424;-74
2023/03/23 03:36:46;;;;;;;;;0.00;0.00;;;;;14.89;62.71;100483.44;2025310;28;2695055;-74
2023/03/23 03:38:07;;;;;;;;;1.00;1.00;;;;;14.89;62.41;100488.72;2046424;28;2731854;-74
2023/03/23 03:39:21;;;;;;;;;2.33;1.00;;;;;14.89;62.44;100490.53;2023512;28;2735734;-74
2023/03/23 03:40:34;;;;;;;;;0.50;0.00;;;;;14.89;62.49;100488.72;2023570;28;2722161;-74
2023/03/23 03:41:48;;;;;;;;;2.00;2.00;;;;;14.88;62.78;100484.38;2044091;28;2749220;-74
2023/03/23 03:43:02;;;;;;;;;3.17;1.00;;;;;14.88;63.02;100487.03;2020910;28;2731532;-74
2023/03/23 03:44:15;;;;;;;;;1.33;1.33;;;;;14.88;62.66;100478.25;2046546;28;2726351;-74
2023/03/23 03:45:29;;;;;;;;;1.17;1.17;;;;;14.88;62.55;100481.75;2022726;28;2729420;-74
2023/03/23 03:46:43;;;;;;;;;1.83;1.83;;;;;14.89;62.45;100477.31;2021413;28;2750257;-74
2023/03/23 03:47:56;;;;;;;;;1.33;1.33;;;;;14.89;62.58;100472.03;2022578;28;2737786;-74
2023/03/23 03:49:12;;;;;;;;;1.83;1.83;;;;;14.89;62.77;100480.78;2022671;28;2736773;-74
2023/03/23 03:50:26;;;;;;;;;3.00;2.00;;;;;14.88;62.53;100481.75;2030472;28;2750261;-74
2023/03/23 03:51:40;;;;;;;;;1.17;1.17;;;;;14.89;62.76;100479.97;2023346;27;2728402;-74
2023/03/23 03:52:53;;;;;;;;;1.17;1.17;;;;;14.87;62.65;100477.38;2046171;28;2739833;-74
2023/03/23 03:54:07;;;;;;;;;1.00;1.00;;;;;14.86;62.80;100473.03;2022849;28;2723211;-74
2023/03/23 03:55:21;;;;;;;;;1.67;1.67;;;;;14.85;63.08;100474.84;2021619;28;2745042;-74
2023/03/23 03:56:40;;;;;;;;;2.00;1.33;;;;;14.87;63.17;100479.16;2046671;28;2728403;-74
2023/03/23 03:57:50;;;;;;;;;2.00;2.00;;;;;14.85;63.14;100472.19;1996559;28;2751361;-74
2023/03/23 03:59:02;;;;;;;;;1.00;1.00;;;;;14.88;63.40;100481.75;2045977;28;2725274;-74
2023/03/23 04:00:16;;;;;;;;;5.67;2.00;;;;;14.90;63.17;100479.00;2045723;28;2741935;-74
2023/03/23 04:01:30;;;;;;;;;2.00;1.00;;;;;14.89;63.12;100478.13;2022872;28;2725277;-74
2023/03/23 04:02:43;;;;;;;;;4.00;2.00;;;;;14.91;63.43;100478.06;1989079;28;2752434;-74
2023/03/23 04:03:56;;;;;;;;;1.33;1.00;;;;;14.88;63.41;100487.03;2046078;28;2720085;-74
2023/03/23 04:05:10;;;;;;;;;1.00;0.83;;;;;14.89;63.41;100479.97;2046136;28;2731893;-74
2023/03/23 04:06:24;;;;;;;;;2.33;1.33;;;;;14.90;63.41;100494.88;2021991;28;2733993;-74
2023/03/23 04:07:38;;;;;;;;;1.67;1.67;;;;;14.89;63.30;100493.19;2022978;28;2724272;-74
2023/03/23 04:08:51;;;;;;;;;1.17;1.17;;;;;14.88;63.36;100494.13;2022692;28;2731516;-74
2023/03/23 04:10:06;;;;;;;;;4.33;1.67;;;;;14.86;63.32;100499.50;2043776;28;2744031;-74
2023/03/23 04:11:20;;;;;;;;;1.83;1.83;;;;;14.86;63.75;100499.50;2022569;28;2733639;-74
2023/03/23 04:12:34;;;;;;;;;2.00;0.67;;;;;14.84;63.71;100502.19;2022340;28;2731519;-74
2023/03/23 04:13:47;;;;;;;;;1.33;1.33;;;;;14.84;63.63;100499.53;2031798;27;2722181;-74
2023/03/23 04:15:00;;;;;;;;;3.83;2.00;;;;;14.84;63.24;100496.06;2032763;27;2754466;-74
2023/03/23 04:16:13;;;;;;;;;2.17;2.00;;;;;14.83;63.55;100500.50;2014335;28;2732011;-74
2023/03/23 04:17:27;;;;;;;;;1.50;1.00;;;;;14.83;63.78;100504.91;2015029;28;2725310;-74
2023/03/23 04:18:44;;;;;;;;;1.83;1.83;;;;;14.83;63.53;100503.13;2030767;27;2725292;-74
2023/03/23 04:19:58;;;;;;;;;1.83;1.83;;;;;14.83;63.40;100508.44;2026126;28;2735702;-74
2023/03/23 04:21:12;;;;;;;;;2.00;2.00;;;;;14.83;63.52;100513.72;2013557;28;2737773;-74
2023/03/23 04:22:29;;;;;;;;;2.00;2.00;;;;;14.84;63.63;100507.47;2022909;28;2735686;-74
2023/03/23 04:23:43;;;;;;;;;2.50;1.50;;;;;14.85;63.56;100505.69;2031556;27;2737746;-74
2023/03/23 04:24:58;;;;;;;;;1.50;1.50;;;;;14.84;63.91;100499.53;2021116;28;2746117;-74
2023/03/23 04:26:12;;;;;;;;;1.33;1.33;;;;;14.85;63.51;100511.88;2023063;28;2730450;-74
2023/03/23 04:27:27;;;;;;;;;1.50;1.50;;;;;14.84;63.61;100507.47;2021914;28;2728926;-74
2023/03/23 04:28:39;;;;;;;;;2.00;2.00;;;;;14.84;63.63;100502.19;1996043;28;2754416;-74
2023/03/23 04:29:52;;;;;;;;;2.00;2.00;;;;;14.84;63.54;100501.34;2045503;28;2741932;-74
2023/03/23 04:31:05;;;;;;;;;2.00;2.00;;;;;14.84;63.51;100502.19;2021560;28;2735706;-74
2023/03/23 04:32:18;;;;;;;;;1.50;0.83;;;;;14.84;63.61;100506.66;2022013;28;2725255;-74
2023/03/23 04:33:31;;;;;;;;;2.00;1.17;;;;;14.83;63.75;100511.06;2023242;28;2725758;-74
2023/03/23 04:34:45;;;;;;;;;2.00;1.00;;;;;14.83;63.55;100513.72;2022573;28;2724247;-74
2023/03/23 04:36:02;;;;;;;;;1.83;0.83;;;;;14.83;63.71;100513.72;2046954;28;2721131;-74
2023/03/23 04:37:15;;;;;;;;;2.00;1.33;;;;;14.83;63.70;100519.00;2045658;28;2735722;-74
2023/03/23 04:38:32;;;;;;;;;1.00;1.00;;;;;14.82;63.70;100522.59;2020486;28;2728390;-74
2023/03/23 04:39:45;;;;;;;;;2.00;1.00;;;;;14.84;63.60;100511.94;2023006;28;2725282;-74
2023/03/23 04:41:01;;;;;;;;;1.00;1.00;;;;;14.83;63.83;100521.66;2046666;28;2722152;-74
2023/03/23 04:42:14;;;;;;;;;0.00;0.00;;;;;14.84;63.60;100517.22;2027289;28;2724224;-74
2023/03/23 04:43:28;;;;;;;;;0.67;0.67;;;;;14.83;63.46;100523.44;2054203;28;2727396;-74
2023/03/23 04:44:43;;;;;;;;;2.17;1.67;;;;;14.82;63.66;100514.66;2021310;28;2744014;-74
2023/03/23 04:45:58;;;;;;;;;1.83;1.83;;;;;14.81;63.52;100520.88;2022778;28;2728399;-74
2023/03/23 04:47:12;;;;;;;;;2.50;2.17;;;;;14.82;63.32;100532.31;2020968;28;2741914;-74
2023/03/23 04:48:32;;;;;;;;;2.50;2.50;;;;;14.81;63.74;100528.81;2017161;28;2741928;-74
2023/03/23 04:49:46;;;;;;;;;1.00;1.00;;;;;14.81;63.31;100528.81;2017114;28;2721118;-74
2023/03/23 04:51:02;;;;;;;;;1.83;1.83;;;;;14.81;63.56;100531.47;2023193;28;2730532;-74
2023/03/23 04:52:16;;;;;;;;;1.50;1.50;;;;;14.80;63.73;100532.41;2022263;28;2732560;-74
2023/03/23 04:53:30;;;;;;;;;1.50;1.17;;;;;14.81;63.45;100538.56;2044792;28;2730967;-74
2023/03/23 04:54:44;;;;;;;;;1.67;1.00;;;;;14.79;63.64;100540.44;2038489;28;2725648;-74
2023/03/23 04:55:57;;;;;;;;;1.17;1.17;;;;;14.80;63.82;100542.13;2045994;28;2725640;-74
2023/03/23 04:57:12;;;;;;;;;0.67;0.67;;;;;14.80;63.54;100544.75;2022919;28;2733591;-74
2023/03/23 04:58:27;;;;;;;;;1.67;1.00;;;;;14.81;63.65;100543.84;2045717;28;2728804;-74
2023/03/23 04:59:42;;;;;;;;;1.00;1.00;;;;;14.79;63.49;100532.50;2023172;27;2736182;-74
2023/03/23 05:00:55;;;;;;;;;3.17;1.50;;;;;14.81;63.68;100546.50;2045450;28;2735708;-74
2023/03/23 05:02:12;;;;;;;;;0.50;0.50;;;;;14.82;63.58;100545.53;2023446;28;2722141;-74
2023/03/23 05:03:26;;;;;;;;;2.33;1.83;;;;;14.81;63.67;100539.41;2022227;28;2739856;-74
2023/03/23 05:04:40;;;;;;;;;1.67;1.67;;;;;14.82;63.38;100540.25;2022209;28;2747154;-74
2023/03/23 05:05:54;;;;;;;;;1.50;1.50;;;;;14.82;63.33;100538.47;2023511;28;2720393;-74
2023/03/23 05:07:08;;;;;;;;;2.33;1.33;;;;;14.83;63.43;100540.19;2022279;28;2740281;-74
2023/03/23 05:08:24;;;;;;;;;1.00;1.00;;;;;14.83;63.14;100531.38;2022539;28;2730458;-74
2023/03/23 05:09:37;;;;;;;;;2.17;1.00;;;;;14.84;63.46;100535.75;2022638;28;2734671;-74
2023/03/23 05:10:59;;;;;;;;;1.00;1.00;;;;;14.83;63.19;100537.53;2022226;28;2727786;-74
2023/03/23 05:12:12;;;;;;;;;3.00;1.50;;;;;14.82;63.06;100533.16;2045053;28;2733058;-75
2023/03/23 05:13:27;;;;;;;;;1.00;1.00;;;;;14.81;63.02;100544.72;2022611;28;2730505;-74
2023/03/23 05:14:42;;;;;;;;;0.33;0.33;;;;;14.81;63.04;100538.56;2023499;28;2742974;-74
2023/03/23 05:15:55;;;;;;;;;2.83;1.00;;;;;14.80;63.13;100537.69;2023439;27;2738803;-74
2023/03/23 05:17:08;;;;;;;;;1.83;1.33;;;;;14.81;63.19;100536.75;2022030;28;2722183;-74
2023/03/23 05:18:22;;;;;;;;;2.50;2.00;;;;;14.81;63.16;100544.72;2021413;28;2736713;-74
2023/03/23 05:19:41;;;;;;;;;2.17;2.00;;;;;14.82;63.11;100543.75;2015388;28;2728403;-74
2023/03/23 05:20:54;;;;;;;;;1.67;1.00;;;;;14.81;63.02;100542.06;2022258;28;2727337;-74
2023/03/23 05:22:07;;;;;;;;;1.00;1.00;;;;;14.81;62.98;100539.41;2021289;28;2720133;-74
2023/03/23 05:23:20;;;;;;;;;1.67;1.00;;;;;14.81;62.60;100539.41;2045006;28;2735685;-74
2023/03/23 05:24:32;;;;;;;;;2.67;2.00;;;;;14.80;62.91;100537.69;1995631;28;2754418;-74
2023/03/23 05:25:53;;;;;;;;;2.50;2.00;;;;;14.80;62.97;100536.84;2045543;28;2741943;-74
2023/03/23 05:27:07;;;;;;;;;1.00;1.00;;;;;14.79;62.84;100541.25;2022440;28;2729452;-74
2023/03/23 05:28:21;;;;;;;;;2.83;1.50;;;;;14.79;62.97;100528.03;2046359;28;2733588;-75
2023/03/23 05:29:36;;;;;;;;;2.00;2.00;;;;;14.80;63.08;100535.03;2021751;28;2739907;-74
2023/03/23 05:30:49;;;;;;;;;1.00;1.00;;;;;14.80;62.83;100532.41;2046063;28;2724221;-74
2023/03/23 05:32:07;;;;;;;;;2.17;1.33;;;;;14.80;63.00;100532.41;2045880;28;2723178;-74
2023/03/23 05:33:20;;;;;;;;;1.83;1.00;;;;;14.83;62.94;100539.31;2022277;28;2728371;-74
2023/03/23 05:34:35;;;;;;;;;1.00;1.00;;;;;14.83;63.20;100531.38;2021390;28;2721098;-74
2023/03/23 05:35:48;;;;;;;;;3.00;2.00;;;;;14.83;62.98;100532.25;2022727;28;2733623;-74
2023/03/23 05:37:03;;;;;;;;;1.00;1.00;;;;;14.82;63.22;100530.53;2022032;28;2729460;-75
2023/03/23 05:38:16;;;;;;;;;1.00;1.00;;;;;14.82;63.29;100530.53;2022134;28;2720546;-74
2023/03/23 05:39:30;;;;;;;;;2.00;2.00;;;;;14.83;63.11;100537.53;2021071;28;2741952;-74
2023/03/23 05:40:44;;;;;;;;;2.33;1.00;;;;;14.83;63.44;100549.91;2022472;28;2720046;-74
2023/03/23 05:41:57;;;;;;;;;1.33;1.33;;;;;14.82;63.12;100542.88;2029752;27;2725277;-74
2023/03/23 05:43:11;;;;;;;;;1.00;1.00;;;;;14.81;63.40;100544.72;2034908;27;2724235;-74
2023/03/23 05:44:24;;;;;;;;;2.50;2.17;;;;;14.81;63.64;100544.72;2021755;28;2738170;-74
2023/03/23 05:45:38;;;;;;;;;2.33;1.00;;;;;14.80;63.59;100548.28;2014215;28;2727346;-74
2023/03/23 05:46:51;;;;;;;;;1.00;1.00;;;;;14.81;63.84;100543.84;2021256;28;2727345;-74
2023/03/23 05:48:05;;;;;;;;;0.67;0.17;;;;;14.81;63.89;100547.34;2046971;28;2724335;-74